Time;durP1;ratioP1;P1;durP2;ratioP2;P2;SDS_P1;SDS_P2;PMS_P1;PMS_P2;Temp;Humidity;BMP_temperature;BMP_pressure;BME280_temperature;BME280_humidity;BME280_pressure;Samples;Min_cycle;Max_cycle;Signal;HPM_P1;HPM_P2
2021/12/16 00:01:51;;;;;;;22.07;9.73;;;;;;;-0.06;100.00;95389.84;4991808;28;20225;-64
2021/12/16 00:34:00;;;;;;;22.40;10.60;;;;;;;-0.03;100.00;95404.75;4994918;28;20164;-64
2021/12/16 00:36:32;;;;;;;20.83;10.87;;;;;;;-0.04;100.00;95407.25;4994783;28;20290;-61
2021/12/16 00:38:58;;;;;;;19.97;9.80;;;;;;;-0.04;100.00;95404.78;4994363;28;20171;-60
2021/12/16 00:41:24;;;;;;;19.33;9.23;;;;;;;-0.07;100.00;95404.88;4994735;28;20272;-64
2021/12/16 00:43:56;;;;;;;16.37;9.50;;;;;;;-0.10;100.00;95405.78;4994245;28;20176;-66
2021/12/16 00:46:55;;;;;;;18.57;9.93;;;;;;;-0.10;100.00;95404.97;4994208;28;20438;-64
2021/12/16 00:54:26;;;;;;;20.47;9.73;;;;;;;-0.15;100.00;95401.81;4994227;28;20228;-65
2021/12/16 00:56:59;;;;;;;17.07;9.50;;;;;;;-0.20;100.00;95398.63;4994571;28;20210;-66
2021/12/16 00:59:28;;;;;;;16.97;9.10;;;;;;;-0.22;100.00;95396.19;4994215;28;20230;-65
2021/12/16 01:02:12;;;;;;;20.13;9.50;;;;;;;-0.22;100.00;95400.34;4994249;28;20597;-65
2021/12/16 01:40:05;;;;;;;14.20;8.37;;;;;;;-0.16;100.00;95375.19;5032546;28;20180;-64
2021/12/16 01:48:15;;;;;;;17.20;8.13;;;;;;;-0.13;100.00;95380.91;5039833;22;20233;-64
2021/12/16 01:50:46;;;;;;;15.90;9.17;;;;;;;-0.11;100.00;95365.88;5032238;28;20215;-64
2021/12/16 01:55:53;;;;;;;18.53;9.20;;;;;;;-0.08;100.00;95365.75;5032526;28;20697;-62
2021/12/16 01:58:23;;;;;;;16.17;8.73;;;;;;;-0.06;100.00;95362.34;5031204;28;20181;-64
2021/12/16 02:01:08;;;;;;;18.60;8.70;;;;;;;-0.10;100.00;95365.00;5031063;28;20219;-63
2021/12/16 02:03:40;;;;;;;17.03;8.77;;;;;;;-0.08;100.00;95360.75;5032569;28;20182;-63
2021/12/16 02:06:23;;;;;;;18.13;8.50;;;;;;;-0.09;100.00;95359.97;5032557;28;20253;-63
2021/12/16 02:08:52;;;;;;;15.37;7.97;;;;;;;-0.08;100.00;95359.09;5032128;28;20232;-64
2021/12/16 02:11:49;;;;;;;15.10;8.83;;;;;;;-0.06;100.00;95357.34;5032268;28;20231;-65
2021/12/16 02:36:57;;;;;;;18.63;8.87;;;;;;;0.17;100.00;95370.78;5026071;22;20290;-64
2021/12/16 02:39:05;;;;;;;15.40;8.23;;;;;;;0.23;100.00;95368.06;5024728;28;20200;-61
2021/12/16 02:41:30;;;;;;;18.80;8.87;;;;;;;0.18;100.00;95372.44;5032482;28;20788;-61
2021/12/16 02:44:16;;;;;;;18.23;8.93;;;;;;;0.18;100.00;95359.94;5031979;28;20701;-62
2021/12/16 02:49:28;;;;;;;16.63;8.70;;;;;;;0.22;100.00;95366.47;5039422;22;20286;-65
2021/12/16 02:51:54;;;;;;;16.23;8.57;;;;;;;0.30;100.00;95372.00;5031978;28;20205;-61
2021/12/16 02:54:20;;;;;;;17.67;9.40;;;;;;;0.21;100.00;95367.31;5032355;28;20198;-64
2021/12/16 02:56:45;;;;;;;17.90;8.87;;;;;;;0.27;100.00;95372.09;5049561;22;20312;-62
2021/12/16 02:59:14;;;;;;;16.13;9.33;;;;;;;0.27;100.00;95379.59;5032074;28;20207;-65
2021/12/16 03:01:50;;;;;;;15.47;8.90;;;;;;;0.20;100.00;95364.00;5031942;28;20201;-64
2021/12/16 03:04:18;;;;;;;20.77;9.50;;;;;;;0.28;100.00;95367.06;5032352;28;20185;-64
2021/12/16 03:06:46;;;;;;;18.07;8.73;;;;;;;0.35;100.00;95367.66;5032070;28;20199;-64
2021/12/16 03:09:16;;;;;;;17.13;9.00;;;;;;;0.27;100.00;95367.09;5031579;28;20598;-66
2021/12/16 03:16:50;;;;;;;16.63;8.43;;;;;;;0.27;100.00;95365.44;5032084;28;20205;-62
2021/12/16 03:19:25;;;;;;;15.70;8.33;;;;;;;0.26;100.00;95358.00;5031664;28;20676;-63
2021/12/16 03:21:55;;;;;;;17.30;9.30;;;;;;;0.33;100.00;95374.41;5031867;28;20262;-64
2021/12/16 03:37:51;;;;;;;16.60;9.53;;;;;;;0.36;100.00;95370.13;5033638;28;20180;-62
2021/12/16 03:40:17;;;;;;;16.63;8.60;;;;;;;0.40;100.00;95370.84;5042589;22;20232;-64
2021/12/16 03:42:48;;;;;;;17.60;8.60;;;;;;;0.54;100.00;95376.19;5035480;28;20178;-62
2021/12/16 03:48:04;;;;;;;17.60;8.90;;;;;;;0.39;100.00;95374.19;5015261;28;20177;-62
2021/12/16 03:50:30;;;;;;;15.67;8.40;;;;;;;0.41;100.00;95374.94;5015624;28;20188;-65
2021/12/16 03:52:56;;;;;;;19.13;9.40;;;;;;;0.41;100.00;95373.28;5015478;28;20186;-64
2021/12/16 03:55:22;;;;;;;16.37;8.40;;;;;;;0.44;100.00;95372.38;5015122;28;20209;-62
2021/12/16 03:57:48;;;;;;;16.73;8.27;;;;;;;0.44;100.00;95373.19;5015407;28;20182;-64
2021/12/16 04:00:19;;;;;;;17.20;9.17;;;;;;;0.51;100.00;95368.78;5015144;28;20193;-64
2021/12/16 04:02:46;;;;;;;14.87;8.43;;;;;;;0.54;100.00;95368.69;5015152;28;20174;-62
2021/12/16 04:05:14;;;;;;;15.47;8.87;;;;;;;0.48;100.00;95372.22;5015631;28;20272;-62
2021/12/16 04:07:41;;;;;;;15.80;9.23;;;;;;;0.48;100.00;95364.72;5013846;28;20416;-61
2021/12/16 04:10:12;;;;;;;15.73;8.03;;;;;;;0.51;100.00;95367.09;5014040;28;20606;-61
2021/12/16 04:12:38;;;;;;;14.47;8.53;;;;;;;0.59;100.00;95374.31;5015028;28;20217;-63
2021/12/16 04:15:07;;;;;;;14.80;8.50;;;;;;;0.58;100.00;95375.22;5015589;28;20577;-63
2021/12/16 04:17:34;;;;;;;16.63;8.43;;;;;;;0.53;100.00;95367.84;5013527;28;20201;-63
2021/12/16 04:20:05;;;;;;;16.80;7.73;;;;;;;0.52;100.00;95365.41;5013982;28;20205;-64
2021/12/16 04:22:37;;;;;;;15.67;8.03;;;;;;;0.52;100.00;95367.91;5014854;28;20288;-64
2021/12/16 04:25:08;;;;;;;14.63;8.53;;;;;;;0.56;100.00;95362.75;5015209;28;20217;-64
2021/12/16 04:27:35;;;;;;;17.37;8.93;;;;;;;0.58;100.00;95358.53;5014857;28;20205;-64
2021/12/16 04:30:01;;;;;;;17.40;8.97;;;;;;;0.55;100.00;95355.28;5015467;28;20220;-64
2021/12/16 04:32:27;;;;;;;13.70;8.47;;;;;;;0.61;100.00;95363.41;5014762;28;20198;-62
2021/12/16 04:34:53;;;;;;;16.57;9.23;;;;;;;0.60;100.00;95353.47;5014637;28;20564;-64
2021/12/16 04:37:18;;;;;;;15.77;8.17;;;;;;;0.72;100.00;95360.53;5014407;28;20612;-62
2021/12/16 04:39:45;;;;;;;13.87;8.23;;;;;;;0.61;100.00;95348.41;5014946;28;20187;-65
2021/12/16 04:42:13;;;;;;;15.90;8.43;;;;;;;0.65;100.00;95354.09;5014799;28;20198;-63
2021/12/16 04:44:41;;;;;;;12.47;8.03;;;;;;;0.57;100.00;95351.88;5014606;28;20222;-64
2021/12/16 04:47:08;;;;;;;16.37;8.20;;;;;;;0.64;100.00;95350.81;5013024;28;20770;-62
2021/12/16 04:49:34;;;;;;;18.37;8.07;;;;;;;0.63;100.00;95353.34;5013082;28;20222;-60
2021/12/16 04:52:05;;;;;;;15.93;8.63;;;;;;;0.59;100.00;95347.63;5014175;28;20198;-62
2021/12/16 04:54:31;;;;;;;18.43;7.80;;;;;;;0.59;100.00;95349.31;5014787;28;20268;-64
2021/12/16 04:56:58;;;;;;;15.63;7.13;;;;;;;0.66;100.00;95354.06;5013913;28;20281;-64
2021/12/16 04:59:26;;;;;;;13.17;8.07;;;;;;;0.68;100.00;95349.00;5014525;28;20182;-65
2021/12/16 05:01:55;;;;;;;13.87;8.37;;;;;;;0.69;100.00;95348.94;5014331;28;20703;-65
2021/12/16 05:04:21;;;;;;;15.27;8.67;;;;;;;0.65;100.00;95346.59;5014223;28;20190;-64
2021/12/16 05:06:47;;;;;;;12.90;7.47;;;;;;;0.66;100.00;95353.25;5012827;28;20350;-64
2021/12/16 05:09:28;;;;;;;15.83;9.07;;;;;;;0.60;100.00;95343.44;5013834;28;20218;-64
2021/12/16 05:11:54;;;;;;;13.83;8.13;;;;;;;0.65;100.00;95347.41;5012829;28;20264;-64
2021/12/16 05:14:20;;;;;;;14.70;7.93;;;;;;;0.63;100.00;95341.66;5014362;28;20218;-66
2021/12/16 05:16:46;;;;;;;17.43;8.13;;;;;;;1.63;100.00;95347.91;5013555;28;20202;-63
2021/12/16 05:19:11;;;;;;;17.10;9.07;;;;;;;3.13;100.00;95350.69;5013653;28;20189;-63
2021/12/16 05:21:49;;;;;;;16.77;9.10;;;;;;;2.72;100.00;95354.22;5013581;28;20202;-63
2021/12/16 05:24:27;;;;;;;16.00;8.70;;;;;;;4.43;100.00;95346.19;5013898;28;20190;-61
2021/12/16 05:26:56;;;;;;;15.10;7.60;;;;;;;4.46;100.00;95351.91;5040224;22;20295;-63
2021/12/16 05:29:24;;;;;;;9.90;6.43;;;;;;;2.74;100.00;95361.69;5047911;22;20261;-66
2021/12/16 05:31:51;;;;;;;13.77;7.40;;;;;;;1.90;100.00;95354.31;5029266;22;20269;-64
2021/12/16 05:34:18;;;;;;;10.13;6.17;;;;;;;1.48;100.00;95358.50;5043237;22;20729;-64
2021/12/16 05:36:44;;;;;;;9.47;5.77;;;;;;;1.13;100.00;95352.31;5048022;22;20702;-70
2021/12/16 05:39:11;;;;;;;13.60;7.27;;;;;;;1.02;100.00;95351.91;5040530;22;20229;-66
2021/12/16 05:41:37;;;;;;;10.60;6.67;;;;;;;0.90;100.00;95349.03;5040719;22;20226;-65
2021/12/16 05:44:03;;;;;;;12.03;7.20;;;;;;;0.78;100.00;95343.63;5033051;28;20609;-63
2021/12/16 05:46:29;;;;;;;14.10;7.13;;;;;;;0.75;100.00;95346.22;5032843;28;20228;-64
2021/12/16 05:48:57;;;;;;;10.57;6.97;;;;;;;0.81;100.00;95348.50;5033123;28;20221;-64
2021/12/16 05:51:32;;;;;;;14.73;7.67;;;;;;;0.71;100.00;95352.19;5064643;22;20236;-65
2021/12/16 05:54:00;;;;;;;10.90;6.30;;;;;;;0.82;100.00;95351.81;5055876;22;20255;-64
2021/12/16 05:56:26;;;;;;;14.03;7.67;;;;;;;0.52;100.00;95340.41;5069377;22;20233;-64
2021/12/16 05:58:52;;;;;;;14.33;7.23;;;;;;;0.56;100.00;95337.75;5041160;22;20177;-64
2021/12/16 06:01:21;;;;;;;11.73;6.37;;;;;;;0.71;100.00;95341.38;5039117;22;20232;-66
2021/12/16 06:03:48;;;;;;;12.23;7.47;;;;;;;0.68;100.00;95347.31;5032636;28;20211;-63
2021/12/16 06:06:15;;;;;;;12.33;7.03;;;;;;;0.78;100.00;95345.31;5047603;22;20233;-62
2021/12/16 06:08:41;;;;;;;12.30;7.60;;;;;;;0.66;100.00;95348.25;5032408;28;20261;-66
2021/12/16 06:11:19;;;;;;;12.43;7.27;;;;;;;0.68;100.00;95351.50;5047532;22;20229;-65
2021/12/16 06:27:25;;;;;;;11.57;5.90;;;;;;;0.72;100.00;95353.03;5070532;22;20232;-64
2021/12/16 06:29:51;;;;;;;10.70;6.23;;;;;;;0.66;100.00;95351.56;5032125;28;20221;-66
2021/12/16 06:32:17;;;;;;;10.43;5.77;;;;;;;0.74;100.00;95353.78;5039669;22;20233;-66
2021/12/16 06:34:44;;;;;;;11.77;6.80;;;;;;;0.70;100.00;95355.59;5032080;28;20185;-66
2021/12/16 06:37:11;;;;;;;8.00;5.37;;;;;;;0.72;100.00;95348.84;5039805;22;20244;-64
2021/12/16 06:39:37;;;;;;;8.63;4.67;;;;;;;0.65;100.00;95351.59;5047099;22;20320;-66
2021/12/16 06:42:06;;;;;;;10.40;5.97;;;;;;;0.63;100.00;95349.16;5032190;28;20209;-68
2021/12/16 06:44:38;;;;;;;10.57;6.20;;;;;;;0.66;100.00;95338.25;5032324;28;20197;-64
2021/12/16 06:47:10;;;;;;;8.67;5.40;;;;;;;0.65;100.00;95341.59;5046993;22;20236;-66
2021/12/16 06:49:39;;;;;;;11.37;6.57;;;;;;;0.69;100.00;95351.44;5032003;28;20212;-65
2021/12/16 06:52:07;;;;;;;9.27;6.33;;;;;;;0.76;100.00;95354.53;5051939;22;20285;-66
2021/12/16 06:59:52;;;;;;;14.07;7.70;;;;;;;0.80;100.00;95359.41;5012537;28;20186;-65
2021/12/16 07:02:36;;;;;;;11.13;6.43;;;;;;;0.78;100.00;95355.31;5012493;28;20193;-66
2021/12/16 07:05:03;;;;;;;12.23;6.20;;;;;;;0.81;100.00;95353.50;5019525;22;20672;-64
2021/12/16 07:07:28;;;;;;;8.57;5.50;;;;;;;0.83;100.00;95353.44;5018942;23;20238;-63
2021/12/16 07:09:54;;;;;;;10.30;6.10;;;;;;;0.84;100.00;95363.41;5038870;22;20825;-67
2021/12/16 07:12:25;;;;;;;8.77;5.70;;;;;;;0.93;100.00;95354.75;5032427;28;20241;-65
2021/12/16 07:14:51;;;;;;;8.60;5.50;;;;;;;0.96;100.00;95362.16;5043294;22;20254;-64
2021/12/16 07:17:17;;;;;;;7.70;5.20;;;;;;;0.96;100.00;95366.34;5035875;28;20317;-65
2021/12/16 07:19:44;;;;;;;10.20;6.20;;;;;;;1.02;100.00;95371.94;5035683;28;20315;-67
2021/12/16 07:22:13;;;;;;;10.07;5.90;;;;;;;1.06;100.00;95367.63;5050403;22;20235;-64
2021/12/16 07:24:38;;;;;;;9.27;5.80;;;;;;;1.17;100.00;95373.06;5035696;28;20635;-65
2021/12/16 07:27:06;;;;;;;6.90;4.47;;;;;;;1.12;100.00;95369.91;5036007;28;20210;-64
2021/12/16 07:29:31;;;;;;;7.90;4.90;;;;;;;1.16;100.00;95371.44;5035510;28;20205;-64
2021/12/16 07:31:59;;;;;;;14.73;6.03;;;;;;;1.21;100.00;95372.88;5034070;28;20323;-65
2021/12/16 07:34:25;;;;;;;10.50;5.70;;;;;;;1.26;100.00;95363.53;5042926;22;20274;-66
2021/12/16 07:36:51;;;;;;;11.17;6.93;;;;;;;1.41;100.00;95369.66;5042840;22;20241;-66
2021/12/16 07:39:19;;;;;;;13.30;6.43;;;;;;;1.39;100.00;95373.91;5035485;28;20185;-65
2021/12/16 07:41:50;;;;;;;12.50;6.27;;;;;;;1.43;100.00;95373.75;5035172;28;20204;-62
2021/12/16 07:44:16;;;;;;;10.97;5.17;;;;;;;1.40;100.00;95371.34;5035378;28;20537;-65
2021/12/16 07:46:48;;;;;;;13.57;5.40;;;;;;;1.49;100.00;95376.00;5035186;28;20213;-66
2021/12/16 07:49:20;;;;;;;8.03;4.40;;;;;;;1.37;100.00;95386.50;5035165;28;20206;-66
2021/12/16 07:51:47;;;;;;;7.50;4.67;;;;;;;1.47;100.00;95372.75;5034986;28;20194;-65
2021/12/16 07:54:15;;;;;;;7.30;4.20;;;;;;;1.53;100.00;95385.03;5035141;28;20182;-65
2021/12/16 07:56:41;;;;;;;8.57;4.53;;;;;;;1.56;100.00;95384.09;5047514;23;20514;-65
2021/12/16 07:59:08;;;;;;;9.17;4.67;;;;;;;1.48;100.00;95381.88;5037735;22;20641;-67
2021/12/16 08:01:35;;;;;;;10.27;5.20;;;;;;;1.42;100.00;95386.28;5049647;22;20230;-66
2021/12/16 08:04:00;;;;;;;8.43;4.57;;;;;;;1.45;100.00;95384.50;5034739;28;20201;-68
2021/12/16 08:06:28;;;;;;;7.43;4.27;;;;;;;1.52;100.00;95388.41;5034740;28;20205;-63
2021/12/16 08:08:58;;;;;;;6.80;4.27;;;;;;;1.50;100.00;95395.16;5057063;22;20320;-64
2021/12/16 08:11:26;;;;;;;8.17;4.90;;;;;;;1.49;100.00;95390.22;5034641;28;20202;-64
2021/12/16 08:13:51;;;;;;;6.23;3.70;;;;;;;1.54;100.00;95385.84;5034450;28;20205;-64
2021/12/16 08:16:22;;;;;;;7.93;4.93;;;;;;;1.60;100.00;95388.94;5041852;22;20226;-63
2021/12/16 08:18:48;;;;;;;13.70;4.57;;;;;;;1.62;100.00;95387.19;5034677;28;20196;-65
2021/12/16 08:21:13;;;;;;;10.27;4.40;;;;;;;1.57;100.00;95371.53;5041984;22;20218;-65
2021/12/16 08:23:39;;;;;;;6.37;4.17;;;;;;;1.62;100.00;95373.81;5034430;28;20189;-65
2021/12/16 08:26:04;;;;;;;10.47;5.37;;;;;;;1.63;100.00;95366.28;5034837;28;20203;-66
2021/12/16 08:28:30;;;;;;;10.07;5.30;;;;;;;1.55;100.00;95368.25;5041818;22;20226;-66
2021/12/16 08:30:55;;;;;;;8.30;5.50;;;;;;;1.54;100.00;95361.59;5034341;28;20201;-65
2021/12/16 08:33:21;;;;;;;10.53;5.50;;;;;;;1.64;100.00;95367.06;5035145;28;20186;-66
2021/12/16 08:35:50;;;;;;;11.63;5.80;;;;;;;1.76;100.00;95364.09;5034595;28;20194;-65
2021/12/16 08:38:21;;;;;;;8.27;5.77;;;;;;;1.62;100.00;95369.66;5041476;22;20606;-67
2021/12/16 08:40:50;;;;;;;6.60;4.90;;;;;;;1.68;100.00;95369.41;5041872;22;20230;-63
2021/12/16 08:43:16;;;;;;;9.80;5.50;;;;;;;1.64;100.00;95367.91;5032780;28;20178;-66
2021/12/16 08:45:42;;;;;;;8.87;4.80;;;;;;;1.63;100.00;95357.94;5048597;22;20367;-65
2021/12/16 08:48:08;;;;;;;10.67;5.43;;;;;;;1.71;100.00;95365.97;5033927;28;20186;-65
2021/12/16 08:50:39;;;;;;;8.03;4.87;;;;;;;1.78;100.00;95361.53;5056211;22;20227;-64
2021/12/16 08:53:07;;;;;;;8.47;4.97;;;;;;;1.69;100.00;95362.72;5036522;22;20306;-65
2021/12/16 08:55:35;;;;;;;9.77;4.30;;;;;;;1.68;100.00;95368.56;5033935;28;20309;-66
2021/12/16 08:58:02;;;;;;;7.00;4.50;;;;;;;1.75;100.00;95357.47;5032662;28;20668;-63
2021/12/16 09:00:31;;;;;;;9.53;5.50;;;;;;;1.69;100.00;95357.69;5033692;28;20186;-65
2021/12/16 09:02:56;;;;;;;8.80;4.43;;;;;;;1.80;100.00;95353.06;5033727;28;20178;-65
2021/12/16 09:05:23;;;;;;;9.60;3.90;;;;;;;1.73;100.00;95351.69;5033859;28;20658;-66
2021/12/16 09:07:49;;;;;;;6.67;4.47;;;;;;;1.73;100.00;95350.88;5033991;28;20182;-64
2021/12/16 09:10:21;;;;;;;9.30;4.97;;;;;;;1.88;100.00;95363.59;5015605;28;20198;-66
2021/12/16 09:15:23;;;;;;;6.13;3.93;;;;;;;1.81;100.00;95362.22;5041143;22;20253;-65
2021/12/16 09:17:51;;;;;;;7.67;4.30;;;;;;;1.97;100.00;95352.41;5055950;22;20213;-64
2021/12/16 09:20:17;;;;;;;6.43;4.37;;;;;;;2.03;100.00;95367.19;5048259;22;21153;-64
2021/12/16 09:22:44;;;;;;;5.97;4.50;;;;;;;2.08;100.00;95365.31;5049557;22;20226;-65
2021/12/16 09:25:10;;;;;;;6.37;4.57;;;;;;;2.07;100.00;95356.97;5032458;28;20221;-66
2021/12/16 09:27:36;;;;;;;9.03;4.73;;;;;;;2.05;100.00;95355.41;5032039;28;20214;-63
2021/12/16 09:30:05;;;;;;;6.87;4.13;;;;;;;1.97;100.00;95352.41;5041668;22;20606;-66
2021/12/16 09:32:31;;;;;;;8.40;5.03;;;;;;;2.00;100.00;95329.72;5048130;22;20284;-64
2021/12/16 09:34:57;;;;;;;6.50;4.43;;;;;;;2.03;100.00;95342.94;5031378;28;20186;-65
2021/12/16 09:37:23;;;;;;;7.10;3.93;;;;;;;1.94;100.00;95342.50;5033770;28;20239;-64
2021/12/16 09:39:48;;;;;;;6.57;3.80;;;;;;;2.06;100.00;95342.81;5040478;22;20248;-66
2021/12/16 09:42:14;;;;;;;10.80;3.53;;;;;;;2.02;100.00;95338.00;5040975;22;20230;-65
2021/12/16 09:44:40;;;;;;;7.07;3.93;;;;;;;1.98;100.00;95326.47;5032704;28;20194;-64
2021/12/16 09:47:10;;;;;;;6.07;3.87;;;;;;;2.05;100.00;95331.16;5033207;28;20202;-64
2021/12/16 09:49:36;;;;;;;6.90;3.67;;;;;;;2.21;100.00;95321.31;5033738;28;20214;-64
2021/12/16 09:52:05;;;;;;;6.87;4.00;;;;;;;2.10;100.00;95333.50;5048379;22;20276;-63
2021/12/16 09:54:33;;;;;;;5.17;3.87;;;;;;;2.03;100.00;95317.88;5032824;28;20189;-67
2021/12/16 09:57:00;;;;;;;6.67;4.23;;;;;;;2.12;100.00;95306.66;5040856;22;20198;-63
2021/12/16 09:59:29;;;;;;;6.80;4.23;;;;;;;2.03;100.00;95312.03;5048038;22;20322;-66
2021/12/16 10:01:58;;;;;;;8.57;4.23;;;;;;;2.05;100.00;95313.59;5012666;28;20202;-66
2021/12/16 10:04:31;;;;;;;4.63;3.23;;;;;;;1.92;100.00;95314.97;5031851;22;20241;-67
2021/12/16 10:06:59;;;;;;;5.37;3.43;;;;;;;1.93;100.00;95308.28;5031996;22;20240;-64
2021/12/16 10:09:25;;;;;;;4.77;3.47;;;;;;;1.93;100.00;95309.09;5032321;28;20399;-66
2021/12/16 10:11:52;;;;;;;4.97;3.70;;;;;;;1.95;100.00;95304.00;5032695;28;20833;-65
2021/12/16 10:14:33;;;;;;;5.53;3.97;;;;;;;1.93;100.00;95298.25;5031922;28;20337;-63
2021/12/16 10:19:38;;;;;;;5.50;3.60;;;;;;;1.90;100.00;95274.13;5018883;23;20739;-67
2021/12/16 10:22:31;;;;;;;5.50;3.50;;;;;;;2.01;100.00;95288.72;5046443;22;20229;-68
2021/12/16 10:25:17;;;;;;;5.83;3.80;;;;;;;2.21;100.00;95283.69;5046693;22;20218;-65
2021/12/16 10:28:02;;;;;;;5.57;3.70;;;;;;;2.19;100.00;95273.72;5033969;22;20230;-67
2021/12/16 10:30:36;;;;;;;6.40;3.90;;;;;;;2.16;100.00;95276.34;5030217;28;20275;-66
2021/12/16 10:35:35;;;;;;;7.90;3.50;;;;;;;2.21;100.00;95283.69;5085667;22;20302;-67
2021/12/16 10:38:05;;;;;;;5.87;3.67;;;;;;;2.18;100.00;95273.81;5031363;22;20338;-66
2021/12/16 10:40:43;;;;;;;6.77;4.03;;;;;;;2.27;100.00;95273.41;5038626;22;20221;-68
2021/12/16 10:43:13;;;;;;;7.60;4.50;;;;;;;2.43;100.00;95266.84;5053879;22;20229;-65
2021/12/16 10:45:38;;;;;;;7.80;4.57;;;;;;;2.35;100.00;95256.31;5068984;22;20617;-67
2021/12/16 10:48:20;;;;;;;4.63;3.40;;;;;;;2.29;100.00;95261.59;5055264;22;20250;-63
2021/12/16 10:51:11;;;;;;;5.50;3.67;;;;;;;2.23;100.00;95252.66;5011184;28;20217;-64
2021/12/16 10:53:45;;;;;;;6.80;4.20;;;;;;;2.32;100.00;95251.47;5032696;22;20222;-66
2021/12/16 10:56:12;;;;;;;5.40;3.60;;;;;;;2.44;100.00;95249.22;5053863;22;20312;-65
2021/12/16 11:03:55;;;;;;;4.47;3.40;;;;;;;2.11;100.00;95242.34;5017958;22;20591;-65
2021/12/16 11:06:37;;;;;;;6.10;3.43;;;;;;;1.99;100.00;95235.31;5011768;28;20233;-65
2021/12/16 11:09:27;;;;;;;7.47;4.30;;;;;;;1.99;100.00;95237.84;5011638;28;20582;-65
2021/12/16 11:12:08;;;;;;;4.23;3.50;;;;;;;2.03;100.00;95241.84;5011793;28;20285;-64
2021/12/16 11:14:34;;;;;;;8.60;4.40;;;;;;;2.01;100.00;95238.59;5049120;22;20232;-68
2021/12/16 11:17:04;;;;;;;6.33;3.67;;;;;;;1.95;100.00;95241.34;5031060;28;20695;-67
2021/12/16 11:20:06;;;;;;;4.33;3.43;;;;;;;1.95;100.00;95238.84;5031360;28;20212;-67
2021/12/16 11:22:36;;;;;;;6.20;3.70;;;;;;;1.95;100.00;95243.84;4999763;28;20356;-67
2021/12/16 11:25:18;;;;;;;5.70;3.60;;;;;;;1.88;100.00;95232.47;5031673;28;20264;-67
2021/12/16 11:30:43;;;;;;;9.10;4.30;;;;;;;1.78;100.00;95232.03;5053562;22;20664;-67
2021/12/16 11:33:11;;;;;;;7.33;3.90;;;;;;;1.84;100.00;95231.78;5010965;28;20237;-67
2021/12/16 11:35:41;;;;;;;5.93;3.67;;;;;;;1.90;100.00;95230.72;5020311;22;20199;-65
2021/12/16 11:38:14;;;;;;;7.93;4.73;;;;;;;1.87;100.00;95229.16;5038053;22;20232;-66
2021/12/16 11:41:03;;;;;;;7.97;4.30;;;;;;;1.94;100.00;95249.75;5031468;28;20209;-67
2021/12/16 11:43:36;;;;;;;5.93;3.90;;;;;;;1.90;100.00;95250.78;5031365;28;20206;-68
2021/12/16 11:46:04;;;;;;;7.93;4.20;;;;;;;1.89;100.00;95249.13;5045792;22;20233;-64
2021/12/16 11:48:35;;;;;;;9.07;4.07;;;;;;;2.00;100.00;95247.78;5041470;22;20240;-65
2021/12/16 11:51:29;;;;;;;6.60;4.57;;;;;;;1.90;100.00;95245.75;5031083;28;20202;-66
2021/12/16 11:54:00;;;;;;;7.83;4.40;;;;;;;1.89;100.00;95242.44;5005535;28;20194;-64
2021/12/16 11:59:10;;;;;;;8.10;4.27;;;;;;;2.05;100.00;95245.09;5041707;22;20294;-66
2021/12/16 12:01:39;;;;;;;6.00;4.30;;;;;;;2.07;100.00;95253.38;5035131;28;20197;-64
2021/12/16 12:04:09;;;;;;;5.43;3.93;;;;;;;2.03;100.00;95239.34;5042478;22;20277;-67
2021/12/16 12:06:36;;;;;;;6.83;4.40;;;;;;;1.97;100.00;95237.91;5035053;28;20259;-67
2021/12/16 12:09:05;;;;;;;6.03;4.30;;;;;;;2.02;100.00;95237.72;5034566;28;20296;-66
2021/12/16 12:11:34;;;;;;;6.03;3.57;;;;;;;2.08;100.00;95237.47;5034946;28;20214;-65
2021/12/16 12:16:48;;;;;;;8.20;4.60;;;;;;;2.08;100.00;95234.97;5056156;22;20313;-66
2021/12/16 12:19:24;;;;;;;6.90;4.90;;;;;;;2.04;100.00;95226.72;5041580;22;20321;-68
2021/12/16 12:21:55;;;;;;;5.87;4.27;;;;;;;2.09;100.00;95239.91;5034139;28;20196;-66
2021/12/16 12:24:37;;;;;;;9.53;5.63;;;;;;;1.98;100.00;95229.50;5057433;22;21354;-64
2021/12/16 12:27:12;;;;;;;7.80;5.13;;;;;;;2.00;100.00;95234.47;5013556;28;20276;-65
2021/12/16 12:29:54;;;;;;;8.97;5.33;;;;;;;2.04;100.00;95235.97;5033952;22;20352;-65
2021/12/16 12:32:24;;;;;;;9.17;5.33;;;;;;;2.07;100.00;95235.81;5034090;28;20201;-65
2021/12/16 12:34:54;;;;;;;12.10;6.07;;;;;;;2.07;100.00;95226.63;5034354;28;20181;-65
2021/12/16 12:37:23;;;;;;;11.07;6.23;;;;;;;2.09;100.00;95229.03;5034400;28;20206;-65
2021/12/16 12:39:54;;;;;;;13.63;6.80;;;;;;;2.17;100.00;95227.84;5034236;28;20182;-64
2021/12/16 12:42:20;;;;;;;9.53;5.63;;;;;;;2.14;100.00;95240.50;5033995;28;20268;-65
2021/12/16 12:44:46;;;;;;;11.27;5.97;;;;;;;2.18;100.00;95236.97;5032828;28;20171;-65
2021/12/16 12:47:22;;;;;;;12.10;6.37;;;;;;;2.14;100.00;95238.00;5040167;22;20535;-65
2021/12/16 12:49:48;;;;;;;8.30;5.50;;;;;;;2.07;100.00;95234.13;5013911;28;20224;-68
2021/12/16 12:52:22;;;;;;;8.43;5.60;;;;;;;2.16;100.00;95236.22;5013966;28;20712;-66
2021/12/16 12:55:28;;;;;;;11.40;5.97;;;;;;;2.13;100.00;95240.56;5014215;28;20175;-64
2021/12/16 12:58:12;;;;;;;8.40;5.73;;;;;;;2.24;100.00;95226.69;5006072;28;20202;-65
2021/12/16 13:00:46;;;;;;;12.77;6.20;;;;;;;2.13;100.00;95225.53;5014076;28;20210;-67
2021/12/16 13:03:18;;;;;;;10.03;6.67;;;;;;;2.05;100.00;95217.53;5023225;22;20680;-67
2021/12/16 13:05:52;;;;;;;9.00;5.43;;;;;;;2.06;100.00;95234.22;5041003;22;20317;-67
2021/12/16 13:08:25;;;;;;;8.63;6.47;;;;;;;2.12;100.00;95233.94;5033525;28;20229;-65
2021/12/16 13:10:50;;;;;;;13.07;7.33;;;;;;;2.18;100.00;95224.44;5032986;28;20255;-66
2021/12/16 13:15:52;;;;;;;11.87;5.93;;;;;;;2.19;100.00;95230.28;5055687;22;20268;-66
2021/12/16 13:27:01;;;;;;;12.13;7.23;;;;;;;2.33;100.00;95233.81;5033817;28;20668;-63
2021/12/16 13:29:34;;;;;;;10.87;7.17;;;;;;;2.25;100.00;95230.00;5037329;22;20226;-67
2021/12/16 13:32:17;;;;;;;11.10;6.63;;;;;;;2.19;100.00;95235.28;5012211;28;20219;-65
2021/12/16 13:37:39;;;;;;;11.97;6.60;;;;;;;2.10;100.00;95228.19;5045560;22;20282;-65
2021/12/16 13:40:08;;;;;;;11.23;6.60;;;;;;;2.05;100.00;95225.03;5032951;28;20218;-65
2021/12/16 13:45:22;;;;;;;12.43;7.30;;;;;;;2.12;100.00;95224.72;5040764;22;20248;-64
2021/12/16 14:05:22;;;;;;;13.37;7.77;;;;;;;2.24;100.00;95254.28;5057024;22;20324;-66
2021/12/16 14:07:56;;;;;;;11.80;7.20;;;;;;;2.28;100.00;95262.50;5012785;28;20257;-65
2021/12/16 14:10:35;;;;;;;10.87;7.00;;;;;;;2.11;100.00;95274.94;5012839;28;20229;-67
2021/12/16 14:16:21;;;;;;;12.57;6.77;;;;;;;2.10;100.00;95274.09;5031745;28;20243;-68
2021/12/16 14:24:57;;;;;;;11.43;7.03;;;;;;;2.00;100.00;95279.59;5040286;22;20229;-67
2021/12/16 14:35:35;;;;;;;10.67;6.40;;;;;;;2.07;100.00;95263.41;5012631;28;20566;-64
2021/12/16 14:38:12;;;;;;;10.07;6.13;;;;;;;1.86;100.00;95251.78;5040666;22;20185;-66
2021/12/16 14:41:04;;;;;;;8.83;5.97;;;;;;;1.90;100.00;95254.06;5033605;22;20273;-65
2021/12/16 14:43:51;;;;;;;12.77;7.03;;;;;;;2.02;100.00;95266.09;5031859;28;20692;-64
2021/12/16 14:46:27;;;;;;;9.97;6.60;;;;;;;2.05;100.00;95270.16;5030972;28;20194;-67
2021/12/16 14:48:53;;;;;;;11.43;6.17;;;;;;;2.04;100.00;95273.56;5030974;28;20233;-63
2021/12/16 14:51:18;;;;;;;10.27;5.60;;;;;;;2.04;100.00;95281.09;5031842;28;20194;-66
2021/12/16 14:53:51;;;;;;;10.10;6.83;;;;;;;2.08;100.00;95275.06;5031917;28;20675;-63
2021/12/16 14:58:49;;;;;;;9.97;6.20;;;;;;;1.99;100.00;95270.44;5039006;22;20242;-63
2021/12/16 15:01:20;;;;;;;12.90;6.40;;;;;;;1.93;100.00;95273.19;5039235;22;20243;-65
2021/12/16 15:03:48;;;;;;;12.17;6.27;;;;;;;1.96;100.00;95258.03;5031760;28;20163;-64
2021/12/16 15:06:41;;;;;;;9.23;6.37;;;;;;;1.96;100.00;95261.34;5046387;22;20325;-67
2021/12/16 15:09:34;;;;;;;12.13;6.83;;;;;;;1.93;100.00;95270.69;5031384;28;20208;-69
2021/12/16 15:45:25;;;;;;;15.93;7.57;;;;;;;1.97;100.00;95290.56;5035799;28;20190;-66
2021/12/16 15:50:43;;;;;;;11.97;6.70;;;;;;;2.14;100.00;95298.16;5037312;22;20327;-66
2021/12/16 15:53:14;;;;;;;14.97;7.63;;;;;;;2.06;100.00;95301.91;5015590;28;20197;-65
2021/12/16 15:55:45;;;;;;;15.03;7.57;;;;;;;2.10;100.00;95300.88;5015675;28;20220;-64
2021/12/16 15:58:18;;;;;;;10.77;6.77;;;;;;;2.11;100.00;95302.50;5015349;28;20177;-66
2021/12/16 16:00:53;;;;;;;10.27;7.37;;;;;;;2.12;100.00;95299.13;5016064;28;20210;-68